sensor_id;sensor_type;location;lat;lon;timestamp;temperature;humidity
10296;DHT22;5193;51.032;6.356;2022-12-01T00:00:34;6.00;99.90
10296;DHT22;5193;51.032;6.356;2022-12-01T00:03:00;5.90;99.90
10296;DHT22;5193;51.032;6.356;2022-12-01T00:05:25;6.00;99.90
10296;DHT22;5193;51.032;6.356;2022-12-01T00:07:51;6.00;99.90
10296;DHT22;5193;51.032;6.356;2022-12-01T00:10:16;6.00;99.90
10296;DHT22;5193;51.032;6.356;2022-12-01T00:12:59;5.90;99.90
10296;DHT22;5193;51.032;6.356;2022-12-01T00:15:33;6.00;99.90
10296;DHT22;5193;51.032;6.356;2022-12-01T00:18:03;6.00;99.90
10296;DHT22;5193;51.032;6.356;2022-12-01T00:20:32;5.90;99.90
10296;DHT22;5193;51.032;6.356;2022-12-01T00:22:58;5.90;99.90
10296;DHT22;5193;51.032;6.356;2022-12-01T00:25:24;5.90;99.90
10296;DHT22;5193;51.032;6.356;2022-12-01T00:27:51;5.90;99.90
10296;DHT22;5193;51.032;6.356;2022-12-01T00:30:18;7.50;99.90
10296;DHT22;5193;51.032;6.356;2022-12-01T00:32:45;5.90;99.90
10296;DHT22;5193;51.032;6.356;2022-12-01T00:35:11;5.90;99.90
10296;DHT22;5193;51.032;6.356;2022-12-01T00:37:37;6.80;99.90
10296;DHT22;5193;51.032;6.356;2022-12-01T00:40:03;5.90;99.90
10296;DHT22;5193;51.032;6.356;2022-12-01T00:42:30;6.00;99.90
10296;DHT22;5193;51.032;6.356;2022-12-01T00:44:55;5.90;99.90
10296;DHT22;5193;51.032;6.356;2022-12-01T00:47:21;5.90;99.90
10296;DHT22;5193;51.032;6.356;2022-12-01T00:49:47;5.90;99.90
10296;DHT22;5193;51.032;6.356;2022-12-01T00:52:14;5.90;99.90
10296;DHT22;5193;51.032;6.356;2022-12-01T00:54:40;5.90;99.90
10296;DHT22;5193;51.032;6.356;2022-12-01T00:57:06;5.90;99.90
10296;DHT22;5193;51.032;6.356;2022-12-01T00:59:32;5.90;99.90
10296;DHT22;5193;51.032;6.356;2022-12-01T01:01:58;5.90;99.90
10296;DHT22;5193;51.032;6.356;2022-12-01T01:04:24;7.10;99.90
10296;DHT22;5193;51.032;6.356;2022-12-01T01:06:49;5.90;99.90
10296;DHT22;5193;51.032;6.356;2022-12-01T01:09:15;5.90;99.90
10296;DHT22;5193;51.032;6.356;2022-12-01T01:11:41;5.90;99.90
10296;DHT22;5193;51.032;6.356;2022-12-01T01:14:07;5.90;99.90
10296;DHT22;5193;51.032;6.356;2022-12-01T01:16:33;5.90;99.90
10296;DHT22;5193;51.032;6.356;2022-12-01T01:18:59;5.90;99.90
10296;DHT22;5193;51.032;6.356;2022-12-01T01:21:25;5.90;99.90
10296;DHT22;5193;51.032;6.356;2022-12-01T01:23:52;5.90;99.90
10296;DHT22;5193;51.032;6.356;2022-12-01T01:26:21;5.90;99.90
10296;DHT22;5193;51.032;6.356;2022-12-01T01:28:48;5.90;99.90
10296;DHT22;5193;51.032;6.356;2022-12-01T01:31:17;5.90;99.90
10296;DHT22;5193;51.032;6.356;2022-12-01T01:33:43;5.90;99.90
10296;DHT22;5193;51.032;6.356;2022-12-01T01:36:09;5.90;99.90
10296;DHT22;5193;51.032;6.356;2022-12-01T01:38:36;5.90;99.90
10296;DHT22;5193;51.032;6.356;2022-12-01T01:41:02;5.90;99.90
10296;DHT22;5193;51.032;6.356;2022-12-01T01:46:26;5.90;99.90
10296;DHT22;5193;51.032;6.356;2022-12-01T01:51:48;5.90;99.90
10296;DHT22;5193;51.032;6.356;2022-12-01T01:54:21;5.90;99.90
10296;DHT22;5193;51.032;6.356;2022-12-01T01:56:49;5.90;99.90
10296;DHT22;5193;51.032;6.356;2022-12-01T01:59:19;5.90;99.90
10296;DHT22;5193;51.032;6.356;2022-12-01T02:01:49;5.90;99.90
10296;DHT22;5193;51.032;6.356;2022-12-01T02:04:16;5.90;99.90
10296;DHT22;5193;51.032;6.356;2022-12-01T02:06:43;5.90;99.90
10296;DHT22;5193;51.032;6.356;2022-12-01T02:09:11;5.90;99.90
10296;DHT22;5193;51.032;6.356;2022-12-01T02:23:36;5.80;99.90
10296;DHT22;5193;51.032;6.356;2022-12-01T02:26:21;5.80;99.90
10296;DHT22;5193;51.032;6.356;2022-12-01T02:31:50;5.80;99.90
10296;DHT22;5193;51.032;6.356;2022-12-01T02:34:39;5.80;99.90
10296;DHT22;5193;51.032;6.356;2022-12-01T02:40:09;5.80;99.90
10296;DHT22;5193;51.032;6.356;2022-12-01T02:43:03;5.80;99.90
10296;DHT22;5193;51.032;6.356;2022-12-01T02:45:35;5.80;99.90
10296;DHT22;5193;51.032;6.356;2022-12-01T02:48:04;5.80;99.90
10296;DHT22;5193;51.032;6.356;2022-12-01T02:50:33;5.80;99.90
10296;DHT22;5193;51.032;6.356;2022-12-01T02:53:02;5.80;99.90
10296;DHT22;5193;51.032;6.356;2022-12-01T02:55:27;5.80;99.90
10296;DHT22;5193;51.032;6.356;2022-12-01T02:57:53;5.80;99.90
10296;DHT22;5193;51.032;6.356;2022-12-01T03:00:19;5.80;99.90
10296;DHT22;5193;51.032;6.356;2022-12-01T03:02:58;5.80;99.90
10296;DHT22;5193;51.032;6.356;2022-12-01T03:05:48;5.70;99.90
10296;DHT22;5193;51.032;6.356;2022-12-01T03:10:51;5.80;99.90
10296;DHT22;5193;51.032;6.356;2022-12-01T03:13:41;5.80;99.90
10296;DHT22;5193;51.032;6.356;2022-12-01T03:16:23;5.80;99.90
10296;DHT22;5193;51.032;6.356;2022-12-01T03:19:11;5.70;99.90
10296;DHT22;5193;51.032;6.356;2022-12-01T03:21:46;5.70;99.90
10296;DHT22;5193;51.032;6.356;2022-12-01T03:24:16;5.70;99.90
10296;DHT22;5193;51.032;6.356;2022-12-01T03:26:47;5.70;99.90
10296;DHT22;5193;51.032;6.356;2022-12-01T03:29:18;5.70;99.90
10296;DHT22;5193;51.032;6.356;2022-12-01T03:31:49;5.70;99.90
10296;DHT22;5193;51.032;6.356;2022-12-01T03:34:40;5.70;99.90
10296;DHT22;5193;51.032;6.356;2022-12-01T03:37:11;5.70;99.90
10296;DHT22;5193;51.032;6.356;2022-12-01T03:39:39;5.70;99.90
10296;DHT22;5193;51.032;6.356;2022-12-01T03:44:47;5.70;99.90
10296;DHT22;5193;51.032;6.356;2022-12-01T03:47:20;5.70;99.90
10296;DHT22;5193;51.032;6.356;2022-12-01T03:49:49;5.70;99.90
10296;DHT22;5193;51.032;6.356;2022-12-01T03:57:55;5.70;99.90
10296;DHT22;5193;51.032;6.356;2022-12-01T04:00:23;5.70;99.90
10296;DHT22;5193;51.032;6.356;2022-12-01T04:02:54;5.70;99.90
10296;DHT22;5193;51.032;6.356;2022-12-01T04:05:20;5.70;99.90
10296;DHT22;5193;51.032;6.356;2022-12-01T04:07:46;5.70;99.90
10296;DHT22;5193;51.032;6.356;2022-12-01T04:10:11;5.70;99.90
10296;DHT22;5193;51.032;6.356;2022-12-01T04:12:37;5.70;99.90
10296;DHT22;5193;51.032;6.356;2022-12-01T04:15:05;5.70;99.90
10296;DHT22;5193;51.032;6.356;2022-12-01T04:17:32;5.70;99.90
10296;DHT22;5193;51.032;6.356;2022-12-01T04:19:58;5.70;99.90
10296;DHT22;5193;51.032;6.356;2022-12-01T04:22:24;5.70;99.90
10296;DHT22;5193;51.032;6.356;2022-12-01T04:24:50;5.70;99.90
10296;DHT22;5193;51.032;6.356;2022-12-01T04:27:15;5.70;99.90
10296;DHT22;5193;51.032;6.356;2022-12-01T04:29:41;5.70;99.90
10296;DHT22;5193;51.032;6.356;2022-12-01T04:32:07;5.70;99.90
10296;DHT22;5193;51.032;6.356;2022-12-01T04:34:33;5.70;99.90
10296;DHT22;5193;51.032;6.356;2022-12-01T04:36:58;5.70;99.90
10296;DHT22;5193;51.032;6.356;2022-12-01T04:39:24;5.70;99.90
10296;DHT22;5193;51.032;6.356;2022-12-01T04:41:50;5.70;99.90
10296;DHT22;5193;51.032;6.356;2022-12-01T04:44:15;5.70;99.90
10296;DHT22;5193;51.032;6.356;2022-12-01T04:46:41;5.70;99.90
10296;DHT22;5193;51.032;6.356;2022-12-01T04:49:07;5.70;99.90
10296;DHT22;5193;51.032;6.356;2022-12-01T04:51:32;5.70;99.90
10296;DHT22;5193;51.032;6.356;2022-12-01T04:54:00;5.70;99.90
10296;DHT22;5193;51.032;6.356;2022-12-01T04:56:26;5.70;99.90
10296;DHT22;5193;51.032;6.356;2022-12-01T04:58:51;5.70;99.90
10296;DHT22;5193;51.032;6.356;2022-12-01T05:01:17;5.70;99.90
10296;DHT22;5193;51.032;6.356;2022-12-01T05:03:45;5.70;99.90
10296;DHT22;5193;51.032;6.356;2022-12-01T05:06:13;5.60;99.90
10296;DHT22;5193;51.032;6.356;2022-12-01T05:08:39;5.60;99.90
10296;DHT22;5193;51.032;6.356;2022-12-01T05:11:06;5.70;99.90
10296;DHT22;5193;51.032;6.356;2022-12-01T05:13:37;5.60;99.90
10296;DHT22;5193;51.032;6.356;2022-12-01T05:16:06;5.60;99.90
10296;DHT22;5193;51.032;6.356;2022-12-01T05:18:32;5.60;99.90
10296;DHT22;5193;51.032;6.356;2022-12-01T05:20:57;5.70;99.90
10296;DHT22;5193;51.032;6.356;2022-12-01T05:23:28;5.70;99.90
10296;DHT22;5193;51.032;6.356;2022-12-01T05:25:54;5.60;99.90
10296;DHT22;5193;51.032;6.356;2022-12-01T05:28:22;5.60;99.90
10296;DHT22;5193;51.032;6.356;2022-12-01T05:30:49;5.70;99.90
10296;DHT22;5193;51.032;6.356;2022-12-01T05:33:15;5.60;99.90
10296;DHT22;5193;51.032;6.356;2022-12-01T05:35:40;5.60;99.90
10296;DHT22;5193;51.032;6.356;2022-12-01T05:38:06;5.60;99.90
10296;DHT22;5193;51.032;6.356;2022-12-01T05:40:32;5.60;99.90
10296;DHT22;5193;51.032;6.356;2022-12-01T05:43:00;5.60;99.90
10296;DHT22;5193;51.032;6.356;2022-12-01T05:45:26;5.70;99.90
10296;DHT22;5193;51.032;6.356;2022-12-01T05:47:59;5.70;99.90
10296;DHT22;5193;51.032;6.356;2022-12-01T05:50:26;5.60;99.90
10296;DHT22;5193;51.032;6.356;2022-12-01T05:52:52;5.60;99.90
10296;DHT22;5193;51.032;6.356;2022-12-01T05:55:17;5.60;99.90
10296;DHT22;5193;51.032;6.356;2022-12-01T05:57:43;5.60;99.90
10296;DHT22;5193;51.032;6.356;2022-12-01T06:00:10;5.60;99.90
10296;DHT22;5193;51.032;6.356;2022-12-01T06:02:36;5.60;99.90
10296;DHT22;5193;51.032;6.356;2022-12-01T06:05:01;5.60;99.90
10296;DHT22;5193;51.032;6.356;2022-12-01T06:07:27;5.60;99.90
10296;DHT22;5193;51.032;6.356;2022-12-01T06:09:53;5.60;99.90
10296;DHT22;5193;51.032;6.356;2022-12-01T06:12:19;5.60;99.90
10296;DHT22;5193;51.032;6.356;2022-12-01T06:14:44;5.60;99.90
10296;DHT22;5193;51.032;6.356;2022-12-01T06:17:10;5.60;99.90
10296;DHT22;5193;51.032;6.356;2022-12-01T06:19:36;5.60;99.90
10296;DHT22;5193;51.032;6.356;2022-12-01T06:22:01;5.60;99.90
10296;DHT22;5193;51.032;6.356;2022-12-01T06:24:27;5.60;99.90
10296;DHT22;5193;51.032;6.356;2022-12-01T06:26:53;5.60;99.90
10296;DHT22;5193;51.032;6.356;2022-12-01T06:29:18;5.60;99.90
10296;DHT22;5193;51.032;6.356;2022-12-01T06:31:44;5.60;99.90
10296;DHT22;5193;51.032;6.356;2022-12-01T06:34:10;5.60;99.90
10296;DHT22;5193;51.032;6.356;2022-12-01T06:36:35;5.60;99.90
10296;DHT22;5193;51.032;6.356;2022-12-01T06:39:04;5.60;99.90
10296;DHT22;5193;51.032;6.356;2022-12-01T06:41:30;5.60;99.90
10296;DHT22;5193;51.032;6.356;2022-12-01T06:43:56;5.60;99.90
10296;DHT22;5193;51.032;6.356;2022-12-01T06:46:21;5.60;99.90
10296;DHT22;5193;51.032;6.356;2022-12-01T06:48:47;5.60;99.90
10296;DHT22;5193;51.032;6.356;2022-12-01T06:51:13;5.60;99.90
10296;DHT22;5193;51.032;6.356;2022-12-01T06:53:39;5.60;99.90
10296;DHT22;5193;51.032;6.356;2022-12-01T06:56:04;5.60;99.90
10296;DHT22;5193;51.032;6.356;2022-12-01T06:58:30;5.60;99.90
10296;DHT22;5193;51.032;6.356;2022-12-01T07:00:56;5.60;99.90
10296;DHT22;5193;51.032;6.356;2022-12-01T07:03:23;5.60;99.90
10296;DHT22;5193;51.032;6.356;2022-12-01T07:05:56;5.60;99.90
10296;DHT22;5193;51.032;6.356;2022-12-01T07:08:23;5.60;99.90
10296;DHT22;5193;51.032;6.356;2022-12-01T07:11:02;5.60;99.90
10296;DHT22;5193;51.032;6.356;2022-12-01T07:13:28;5.60;99.90
10296;DHT22;5193;51.032;6.356;2022-12-01T07:15:54;5.60;99.90
10296;DHT22;5193;51.032;6.356;2022-12-01T07:18:20;5.60;99.90
10296;DHT22;5193;51.032;6.356;2022-12-01T07:20:46;5.60;99.90
10296;DHT22;5193;51.032;6.356;2022-12-01T07:23:11;5.60;99.90
10296;DHT22;5193;51.032;6.356;2022-12-01T07:25:37;5.50;99.90
10296;DHT22;5193;51.032;6.356;2022-12-01T07:28:02;5.50;99.90
10296;DHT22;5193;51.032;6.356;2022-12-01T07:30:28;5.50;99.90
10296;DHT22;5193;51.032;6.356;2022-12-01T07:32:54;5.50;99.90
10296;DHT22;5193;51.032;6.356;2022-12-01T07:35:19;5.50;99.90
10296;DHT22;5193;51.032;6.356;2022-12-01T07:37:45;5.50;99.90
10296;DHT22;5193;51.032;6.356;2022-12-01T07:40:11;5.50;99.90
10296;DHT22;5193;51.032;6.356;2022-12-01T07:42:40;5.50;99.90
10296;DHT22;5193;51.032;6.356;2022-12-01T07:45:06;5.50;99.90
10296;DHT22;5193;51.032;6.356;2022-12-01T07:47:32;5.50;99.90
10296;DHT22;5193;51.032;6.356;2022-12-01T07:49:58;5.50;99.90
10296;DHT22;5193;51.032;6.356;2022-12-01T07:52:23;5.50;99.90
10296;DHT22;5193;51.032;6.356;2022-12-01T07:54:49;5.50;99.90
10296;DHT22;5193;51.032;6.356;2022-12-01T07:57:14;5.50;99.90
10296;DHT22;5193;51.032;6.356;2022-12-01T07:59:40;5.50;99.90
10296;DHT22;5193;51.032;6.356;2022-12-01T08:02:07;5.50;99.90
10296;DHT22;5193;51.032;6.356;2022-12-01T08:04:32;5.50;99.90
10296;DHT22;5193;51.032;6.356;2022-12-01T08:06:58;5.50;99.90
10296;DHT22;5193;51.032;6.356;2022-12-01T08:09:23;5.50;99.90
10296;DHT22;5193;51.032;6.356;2022-12-01T08:11:49;5.50;99.90
10296;DHT22;5193;51.032;6.356;2022-12-01T08:14:15;5.50;99.90
10296;DHT22;5193;51.032;6.356;2022-12-01T08:16:40;5.50;99.90
10296;DHT22;5193;51.032;6.356;2022-12-01T08:19:09;5.50;99.90
10296;DHT22;5193;51.032;6.356;2022-12-01T08:21:35;5.50;99.90
10296;DHT22;5193;51.032;6.356;2022-12-01T08:24:02;5.50;99.90
10296;DHT22;5193;51.032;6.356;2022-12-01T08:26:28;5.50;99.90
10296;DHT22;5193;51.032;6.356;2022-12-01T08:28:54;5.50;99.90
10296;DHT22;5193;51.032;6.356;2022-12-01T08:31:25;5.50;99.90
10296;DHT22;5193;51.032;6.356;2022-12-01T08:33:51;5.50;99.90
10296;DHT22;5193;51.032;6.356;2022-12-01T08:36:18;5.60;99.90
10296;DHT22;5193;51.032;6.356;2022-12-01T08:38:46;5.60;99.90
10296;DHT22;5193;51.032;6.356;2022-12-01T08:41:12;5.60;99.90
10296;DHT22;5193;51.032;6.356;2022-12-01T08:43:39;5.60;99.90
10296;DHT22;5193;51.032;6.356;2022-12-01T08:46:07;5.60;99.90
10296;DHT22;5193;51.032;6.356;2022-12-01T08:48:33;5.60;99.90
10296;DHT22;5193;51.032;6.356;2022-12-01T08:51:14;5.60;99.90
10296;DHT22;5193;51.032;6.356;2022-12-01T08:53:47;5.60;99.90
10296;DHT22;5193;51.032;6.356;2022-12-01T08:58:38;5.60;99.90
10296;DHT22;5193;51.032;6.356;2022-12-01T09:01:07;5.60;99.90
10296;DHT22;5193;51.032;6.356;2022-12-01T09:03:34;5.60;99.90
10296;DHT22;5193;51.032;6.356;2022-12-01T09:08:35;5.60;99.90
10296;DHT22;5193;51.032;6.356;2022-12-01T09:11:08;5.70;99.90
10296;DHT22;5193;51.032;6.356;2022-12-01T09:13:34;5.70;99.90
10296;DHT22;5193;51.032;6.356;2022-12-01T09:16:09;5.70;99.90
10296;DHT22;5193;51.032;6.356;2022-12-01T09:18:36;5.70;99.90
10296;DHT22;5193;51.032;6.356;2022-12-01T09:21:16;5.70;99.90
10296;DHT22;5193;51.032;6.356;2022-12-01T09:23:42;5.70;99.90
10296;DHT22;5193;51.032;6.356;2022-12-01T09:26:08;5.70;99.90
10296;DHT22;5193;51.032;6.356;2022-12-01T09:28:35;5.70;99.90
10296;DHT22;5193;51.032;6.356;2022-12-01T09:31:10;5.70;99.90
10296;DHT22;5193;51.032;6.356;2022-12-01T09:33:36;5.80;99.90
10296;DHT22;5193;51.032;6.356;2022-12-01T09:36:02;5.80;99.90
10296;DHT22;5193;51.032;6.356;2022-12-01T09:38:29;5.70;99.90
10296;DHT22;5193;51.032;6.356;2022-12-01T09:40:55;5.80;99.90
10296;DHT22;5193;51.032;6.356;2022-12-01T09:43:27;5.80;99.90
10296;DHT22;5193;51.032;6.356;2022-12-01T09:45:58;5.80;99.90
10296;DHT22;5193;51.032;6.356;2022-12-01T09:48:35;5.80;99.90
10296;DHT22;5193;51.032;6.356;2022-12-01T09:51:18;5.80;99.90
10296;DHT22;5193;51.032;6.356;2022-12-01T09:53:44;5.80;99.90
10296;DHT22;5193;51.032;6.356;2022-12-01T09:56:21;5.80;99.90
10296;DHT22;5193;51.032;6.356;2022-12-01T09:58:53;5.80;99.90
10296;DHT22;5193;51.032;6.356;2022-12-01T10:01:37;5.80;99.90
10296;DHT22;5193;51.032;6.356;2022-12-01T10:06:47;5.80;99.90
10296;DHT22;5193;51.032;6.356;2022-12-01T10:11:46;5.80;99.90
10296;DHT22;5193;51.032;6.356;2022-12-01T10:14:16;5.80;99.90
10296;DHT22;5193;51.032;6.356;2022-12-01T10:17:12;5.80;99.90
10296;DHT22;5193;51.032;6.356;2022-12-01T10:19:53;5.80;99.90
10296;DHT22;5193;51.032;6.356;2022-12-01T10:25:27;5.80;99.90
10296;DHT22;5193;51.032;6.356;2022-12-01T10:30:29;5.80;99.90
10296;DHT22;5193;51.032;6.356;2022-12-01T10:32:59;5.90;99.90
10296;DHT22;5193;51.032;6.356;2022-12-01T10:35:28;5.90;99.90
10296;DHT22;5193;51.032;6.356;2022-12-01T10:38:02;5.80;99.90
10296;DHT22;5193;51.032;6.356;2022-12-01T10:40:28;5.90;99.90
10296;DHT22;5193;51.032;6.356;2022-12-01T10:42:58;5.90;99.90
10296;DHT22;5193;51.032;6.356;2022-12-01T10:45:33;5.90;99.90
10296;DHT22;5193;51.032;6.356;2022-12-01T10:48:08;5.90;99.90
10296;DHT22;5193;51.032;6.356;2022-12-01T10:50:35;5.90;99.90
10296;DHT22;5193;51.032;6.356;2022-12-01T10:53:01;5.90;99.90
10296;DHT22;5193;51.032;6.356;2022-12-01T10:55:30;5.90;99.90
10296;DHT22;5193;51.032;6.356;2022-12-01T10:57:59;5.80;99.90
10296;DHT22;5193;51.032;6.356;2022-12-01T11:00:40;5.90;99.90
10296;DHT22;5193;51.032;6.356;2022-12-01T11:03:16;5.90;99.90
10296;DHT22;5193;51.032;6.356;2022-12-01T11:05:43;5.90;99.90
10296;DHT22;5193;51.032;6.356;2022-12-01T11:08:22;5.90;99.90
10296;DHT22;5193;51.032;6.356;2022-12-01T11:10:48;5.90;99.90
10296;DHT22;5193;51.032;6.356;2022-12-01T11:13:22;5.90;99.90
10296;DHT22;5193;51.032;6.356;2022-12-01T11:15:54;5.90;99.90
10296;DHT22;5193;51.032;6.356;2022-12-01T11:21:11;5.90;99.90
10296;DHT22;5193;51.032;6.356;2022-12-01T11:23:47;5.90;99.90
10296;DHT22;5193;51.032;6.356;2022-12-01T11:26:29;5.90;99.90
10296;DHT22;5193;51.032;6.356;2022-12-01T11:31:40;5.90;99.90
10296;DHT22;5193;51.032;6.356;2022-12-01T11:34:17;5.90;99.90
10296;DHT22;5193;51.032;6.356;2022-12-01T11:36:47;5.90;99.90
10296;DHT22;5193;51.032;6.356;2022-12-01T11:39:34;5.90;99.90
10296;DHT22;5193;51.032;6.356;2022-12-01T11:44:37;5.90;99.90
10296;DHT22;5193;51.032;6.356;2022-12-01T11:47:15;5.90;99.90
10296;DHT22;5193;51.032;6.356;2022-12-01T11:49:43;5.90;99.90
10296;DHT22;5193;51.032;6.356;2022-12-01T11:52:34;5.90;99.90
10296;DHT22;5193;51.032;6.356;2022-12-01T11:57:39;5.90;99.90
10296;DHT22;5193;51.032;6.356;2022-12-01T12:00:16;5.90;99.90
10296;DHT22;5193;51.032;6.356;2022-12-01T12:02:52;5.90;99.90
10296;DHT22;5193;51.032;6.356;2022-12-01T12:05:33;5.90;99.90
10296;DHT22;5193;51.032;6.356;2022-12-01T12:08:22;6.00;99.90
10296;DHT22;5193;51.032;6.356;2022-12-01T12:22:10;6.00;99.90
10296;DHT22;5193;51.032;6.356;2022-12-01T12:24:58;6.00;99.90
10296;DHT22;5193;51.032;6.356;2022-12-01T12:30:17;6.10;99.90
10296;DHT22;5193;51.032;6.356;2022-12-01T12:35:46;6.10;99.90
10296;DHT22;5193;51.032;6.356;2022-12-01T12:39:07;6.00;99.90
10296;DHT22;5193;51.032;6.356;2022-12-01T12:41:35;6.00;99.90
10296;DHT22;5193;51.032;6.356;2022-12-01T12:44:16;6.00;99.90
10296;DHT22;5193;51.032;6.356;2022-12-01T12:52:05;6.00;99.90
10296;DHT22;5193;51.032;6.356;2022-12-01T12:57:27;6.00;99.90
10296;DHT22;5193;51.032;6.356;2022-12-01T13:00:01;6.00;99.90
10296;DHT22;5193;51.032;6.356;2022-12-01T13:05:44;5.90;99.90
10296;DHT22;5193;51.032;6.356;2022-12-01T13:08:38;5.90;99.90
10296;DHT22;5193;51.032;6.356;2022-12-01T13:11:13;5.90;99.90
10296;DHT22;5193;51.032;6.356;2022-12-01T13:14:04;5.90;99.90
10296;DHT22;5193;51.032;6.356;2022-12-01T13:16:43;5.90;99.90
10296;DHT22;5193;51.032;6.356;2022-12-01T13:19:11;5.90;99.90
10296;DHT22;5193;51.032;6.356;2022-12-01T13:21:42;5.90;99.90
10296;DHT22;5193;51.032;6.356;2022-12-01T13:24:11;5.90;99.90
10296;DHT22;5193;51.032;6.356;2022-12-01T13:26:38;5.90;99.90
10296;DHT22;5193;51.032;6.356;2022-12-01T13:29:06;6.00;99.90
10296;DHT22;5193;51.032;6.356;2022-12-01T13:31:44;6.00;99.90
10296;DHT22;5193;51.032;6.356;2022-12-01T13:36:49;6.00;99.90
10296;DHT22;5193;51.032;6.356;2022-12-01T13:39:21;6.00;99.90
10296;DHT22;5193;51.032;6.356;2022-12-01T13:42:00;6.10;99.90
10296;DHT22;5193;51.032;6.356;2022-12-01T13:44:39;6.00;99.90
10296;DHT22;5193;51.032;6.356;2022-12-01T13:49:46;6.10;99.90
10296;DHT22;5193;51.032;6.356;2022-12-01T13:55:02;6.10;99.90
10296;DHT22;5193;51.032;6.356;2022-12-01T13:58:17;6.10;99.90
10296;DHT22;5193;51.032;6.356;2022-12-01T14:00:37;6.10;99.90
10296;DHT22;5193;51.032;6.356;2022-12-01T14:06:03;6.10;99.90
10296;DHT22;5193;51.032;6.356;2022-12-01T14:08:34;6.10;99.90
10296;DHT22;5193;51.032;6.356;2022-12-01T14:11:05;6.10;99.90
10296;DHT22;5193;51.032;6.356;2022-12-01T14:16:14;6.10;99.90
10296;DHT22;5193;51.032;6.356;2022-12-01T14:19:04;6.10;99.90
10296;DHT22;5193;51.032;6.356;2022-12-01T14:21:47;6.10;99.90
10296;DHT22;5193;51.032;6.356;2022-12-01T14:26:52;6.10;99.90
10296;DHT22;5193;51.032;6.356;2022-12-01T14:29:26;6.10;99.90
10296;DHT22;5193;51.032;6.356;2022-12-01T14:34:22;6.10;99.90
10296;DHT22;5193;51.032;6.356;2022-12-01T14:36:56;6.10;99.90
10296;DHT22;5193;51.032;6.356;2022-12-01T14:39:27;6.10;99.90
10296;DHT22;5193;51.032;6.356;2022-12-01T14:45:14;6.00;99.90
10296;DHT22;5193;51.032;6.356;2022-12-01T14:47:45;6.00;99.90
10296;DHT22;5193;51.032;6.356;2022-12-01T14:52:49;6.10;99.90
10296;DHT22;5193;51.032;6.356;2022-12-01T14:55:23;6.00;99.90
10296;DHT22;5193;51.032;6.356;2022-12-01T14:57:52;6.10;99.90
10296;DHT22;5193;51.032;6.356;2022-12-01T15:00:24;6.00;99.90
10296;DHT22;5193;51.032;6.356;2022-12-01T15:05:24;6.00;99.90
10296;DHT22;5193;51.032;6.356;2022-12-01T15:07:54;6.00;99.90
10296;DHT22;5193;51.032;6.356;2022-12-01T15:10:28;6.00;99.90
10296;DHT22;5193;51.032;6.356;2022-12-01T15:13:12;6.00;99.90
10296;DHT22;5193;51.032;6.356;2022-12-01T15:15:49;6.00;99.90
10296;DHT22;5193;51.032;6.356;2022-12-01T15:18:35;5.90;99.90
10296;DHT22;5193;51.032;6.356;2022-12-01T15:21:11;5.90;99.90
10296;DHT22;5193;51.032;6.356;2022-12-01T15:26:20;5.80;99.90
10296;DHT22;5193;51.032;6.356;2022-12-01T15:28:46;5.80;99.90
10296;DHT22;5193;51.032;6.356;2022-12-01T15:31:12;5.80;99.90
10296;DHT22;5193;51.032;6.356;2022-12-01T15:33:45;5.80;99.90
10296;DHT22;5193;51.032;6.356;2022-12-01T15:36:12;5.80;99.90
10296;DHT22;5193;51.032;6.356;2022-12-01T15:38:39;5.80;99.90
10296;DHT22;5193;51.032;6.356;2022-12-01T15:41:07;5.80;99.90
10296;DHT22;5193;51.032;6.356;2022-12-01T15:43:38;5.80;99.90
10296;DHT22;5193;51.032;6.356;2022-12-01T15:46:16;5.80;99.90
10296;DHT22;5193;51.032;6.356;2022-12-01T15:48:43;5.80;99.90
10296;DHT22;5193;51.032;6.356;2022-12-01T15:53:59;5.70;99.90
10296;DHT22;5193;51.032;6.356;2022-12-01T15:56:29;5.70;99.90
10296;DHT22;5193;51.032;6.356;2022-12-01T16:01:40;5.70;99.90
10296;DHT22;5193;51.032;6.356;2022-12-01T16:04:16;5.70;99.90
10296;DHT22;5193;51.032;6.356;2022-12-01T16:07:01;5.70;99.90
10296;DHT22;5193;51.032;6.356;2022-12-01T16:09:37;5.70;99.90
10296;DHT22;5193;51.032;6.356;2022-12-01T16:15:00;5.70;99.90
10296;DHT22;5193;51.032;6.356;2022-12-01T16:17:42;5.70;99.90
10296;DHT22;5193;51.032;6.356;2022-12-01T16:22:48;5.60;99.90
10296;DHT22;5193;51.032;6.356;2022-12-01T16:25:31;5.60;99.90
10296;DHT22;5193;51.032;6.356;2022-12-01T16:27:58;5.60;99.90
10296;DHT22;5193;51.032;6.356;2022-12-01T16:30:26;5.60;99.90
10296;DHT22;5193;51.032;6.356;2022-12-01T16:35:28;5.60;99.90
10296;DHT22;5193;51.032;6.356;2022-12-01T16:37:55;5.60;99.90
10296;DHT22;5193;51.032;6.356;2022-12-01T16:40:21;5.50;99.90
10296;DHT22;5193;51.032;6.356;2022-12-01T16:42:47;5.50;99.90
10296;DHT22;5193;51.032;6.356;2022-12-01T16:45:14;5.50;99.90
10296;DHT22;5193;51.032;6.356;2022-12-01T16:47:42;5.50;99.90
10296;DHT22;5193;51.032;6.356;2022-12-01T16:50:16;5.50;99.90
10296;DHT22;5193;51.032;6.356;2022-12-01T16:52:42;5.50;99.90
10296;DHT22;5193;51.032;6.356;2022-12-01T16:55:43;5.50;99.90
10296;DHT22;5193;51.032;6.356;2022-12-01T16:58:08;5.50;99.90
10296;DHT22;5193;51.032;6.356;2022-12-01T17:00:34;5.50;99.90
10296;DHT22;5193;51.032;6.356;2022-12-01T17:03:00;5.50;99.90
10296;DHT22;5193;51.032;6.356;2022-12-01T17:05:26;5.50;99.90
10296;DHT22;5193;51.032;6.356;2022-12-01T17:07:52;5.50;99.90
10296;DHT22;5193;51.032;6.356;2022-12-01T17:10:18;5.50;99.90
10296;DHT22;5193;51.032;6.356;2022-12-01T17:12:43;5.50;99.90
10296;DHT22;5193;51.032;6.356;2022-12-01T17:15:10;5.50;99.90
10296;DHT22;5193;51.032;6.356;2022-12-01T17:17:36;5.50;99.90
10296;DHT22;5193;51.032;6.356;2022-12-01T17:20:03;5.50;99.90
10296;DHT22;5193;51.032;6.356;2022-12-01T17:22:29;5.50;99.90
10296;DHT22;5193;51.032;6.356;2022-12-01T17:24:55;5.50;99.90
10296;DHT22;5193;51.032;6.356;2022-12-01T17:27:21;5.50;99.90
10296;DHT22;5193;51.032;6.356;2022-12-01T17:29:47;5.50;99.90
10296;DHT22;5193;51.032;6.356;2022-12-01T17:32:13;5.50;99.90
10296;DHT22;5193;51.032;6.356;2022-12-01T17:34:39;5.90;99.90
10296;DHT22;5193;51.032;6.356;2022-12-01T17:37:04;5.50;99.90
10296;DHT22;5193;51.032;6.356;2022-12-01T17:39:30;5.50;99.90
10296;DHT22;5193;51.032;6.356;2022-12-01T17:41:55;5.50;99.90
10296;DHT22;5193;51.032;6.356;2022-12-01T17:44:21;5.50;99.90
10296;DHT22;5193;51.032;6.356;2022-12-01T17:46:47;5.50;99.90
10296;DHT22;5193;51.032;6.356;2022-12-01T17:49:12;5.40;99.90
10296;DHT22;5193;51.032;6.356;2022-12-01T17:51:39;5.40;99.90
10296;DHT22;5193;51.032;6.356;2022-12-01T17:54:06;5.40;99.90
10296;DHT22;5193;51.032;6.356;2022-12-01T17:56:32;5.40;99.90
10296;DHT22;5193;51.032;6.356;2022-12-01T17:58:58;5.50;99.90
10296;DHT22;5193;51.032;6.356;2022-12-01T18:01:24;5.40;99.90
10296;DHT22;5193;51.032;6.356;2022-12-01T18:03:49;5.40;99.90
10296;DHT22;5193;51.032;6.356;2022-12-01T18:06:16;5.40;99.90
10296;DHT22;5193;51.032;6.356;2022-12-01T18:08:43;5.40;99.90
10296;DHT22;5193;51.032;6.356;2022-12-01T18:11:14;5.40;99.90
10296;DHT22;5193;51.032;6.356;2022-12-01T18:13:44;5.40;99.90
10296;DHT22;5193;51.032;6.356;2022-12-01T18:16:12;5.40;99.90
10296;DHT22;5193;51.032;6.356;2022-12-01T18:18:39;5.40;99.90
10296;DHT22;5193;51.032;6.356;2022-12-01T18:21:09;5.40;99.90
10296;DHT22;5193;51.032;6.356;2022-12-01T18:23:35;5.30;99.90
10296;DHT22;5193;51.032;6.356;2022-12-01T18:26:09;5.40;99.90
10296;DHT22;5193;51.032;6.356;2022-12-01T18:28:34;5.40;99.90
10296;DHT22;5193;51.032;6.356;2022-12-01T18:31:11;5.30;99.90